Time;durP1;ratioP1;P1;durP2;ratioP2;P2;SDS_P1;SDS_P2;PMS_P1;PMS_P2;Temp;Humidity;BMP_temperature;BMP_pressure;BME280_temperature;BME280_humidity;BME280_pressure;Samples;Min_cycle;Max_cycle;Signal;HPM_P1;HPM_P2
2023/10/25 00:02:15;;;;;;;10.13;6.13;;;9.80;99.90;;;;;;15453299;23;20032;-82
2023/10/25 00:08:17;;;;;;;12.40;6.32;;;9.70;99.90;;;;;;15447042;23;20079;-82
2023/10/25 00:14:19;;;;;;;9.07;5.35;;;9.80;99.90;;;;;;15435629;23;20028;-81
2023/10/25 00:20:21;;;;;;;8.45;5.40;;;9.70;99.90;;;;;;15467497;23;20024;-83
2023/10/25 00:26:23;;;;;;;9.32;5.70;;;9.70;99.90;;;;;;15475649;23;20024;-81
2023/10/25 00:32:25;;;;;;;9.30;5.05;;;9.70;99.90;;;;;;15456691;23;20020;-83
2023/10/25 00:38:27;;;;;;;7.70;5.20;;;9.80;99.90;;;;;;15455119;23;20024;-82
2023/10/25 00:44:28;;;;;;;7.57;4.75;;;9.70;99.90;;;;;;15450488;23;20024;-82
2023/10/25 00:50:31;;;;;;;6.13;4.38;;;9.70;99.90;;;;;;15446308;23;20446;-82
2023/10/25 00:56:36;;;;;;;7.65;4.40;;;9.60;99.90;;;;;;15445296;22;20028;-83
2023/10/25 01:02:38;;;;;;;8.45;4.45;;;9.80;99.90;;;;;;15458502;23;20031;-83
2023/10/25 01:08:40;;;;;;;7.95;4.57;;;9.60;99.90;;;;;;15453670;23;20020;-83
2023/10/25 01:14:42;;;;;;;8.68;4.30;;;9.60;99.90;;;;;;15457034;23;20055;-82
2023/10/25 01:20:45;;;;;;;6.68;4.00;;;9.60;99.90;;;;;;15481275;23;20103;-84
2023/10/25 01:26:47;;;;;;;7.95;3.70;;;9.60;99.90;;;;;;15455557;23;20027;-83
2023/10/25 01:32:49;;;;;;;7.53;3.72;;;9.60;99.90;;;;;;15450158;23;20031;-84
2023/10/25 01:38:50;;;;;;;6.45;3.70;;;9.60;99.90;;;;;;15471070;23;20084;-84
2023/10/25 01:44:53;;;;;;;7.07;3.55;;;9.60;99.90;;;;;;15461736;23;20031;-83
2023/10/25 01:50:54;;;;;;;8.35;3.60;;;9.50;99.90;;;;;;15468500;23;20031;-83
2023/10/25 01:56:56;;;;;;;6.47;3.33;;;9.50;99.90;;;;;;15495565;22;20052;-82
2023/10/25 02:02:58;;;;;;;7.80;3.63;;;9.50;99.90;;;;;;15498622;23;20028;-83
2023/10/25 02:09:00;;;;;;;5.63;3.35;;;9.60;99.90;;;;;;15487247;23;20024;-83
2023/10/25 02:15:03;;;;;;;8.23;3.50;;;9.50;99.90;;;;;;15456750;23;20028;-83
2023/10/25 02:21:05;;;;;;;7.03;3.60;;;9.40;99.90;;;;;;15477673;23;20446;-81
2023/10/25 02:27:07;;;;;;;6.40;3.08;;;9.50;99.90;;;;;;15468733;23;20020;-83
2023/10/25 02:33:09;;;;;;;12.70;3.60;;;9.50;99.90;;;;;;15498070;23;20024;-82
2023/10/25 02:39:10;;;;;;;9.60;3.72;;;9.40;99.90;;;;;;15476268;23;20027;-83
2023/10/25 02:45:12;;;;;;;6.07;3.40;;;9.40;99.90;;;;;;15487296;23;20020;-81
2023/10/25 02:51:14;;;;;;;7.10;4.30;;;9.50;99.90;;;;;;15440107;23;20028;-82
2023/10/25 02:57:16;;;;;;;8.60;3.30;;;9.50;99.90;;;;;;15475031;22;20031;-81
2023/10/25 03:03:18;;;;;;;7.70;3.08;;;9.40;99.90;;;;;;15451814;23;20028;-82
2023/10/25 03:09:20;;;;;;;5.60;3.20;;;9.30;99.90;;;;;;15449390;23;20984;-83
2023/10/25 03:15:23;;;;;;;7.00;3.15;;;9.30;99.90;;;;;;15446650;23;20028;-82
2023/10/25 03:21:25;;;;;;;5.35;3.03;;;9.30;99.90;;;;;;15443898;23;20036;-82
2023/10/25 03:27:27;;;;;;;6.40;3.15;;;9.30;99.90;;;;;;15477271;23;20464;-81
2023/10/25 03:33:29;;;;;;;6.50;3.10;;;9.30;99.90;;;;;;15474642;23;20102;-82
2023/10/25 03:39:31;;;;;;;7.63;3.15;;;9.20;99.90;;;;;;15477924;23;20028;-81
2023/10/25 03:45:33;;;;;;;6.38;2.80;;;9.20;99.90;;;;;;15471199;23;20024;-82
2023/10/25 03:51:35;;;;;;;8.80;2.70;;;9.20;99.90;;;;;;15475004;23;20031;-82
2023/10/25 03:57:37;;;;;;;4.72;2.97;;;9.10;99.90;;;;;;15474797;22;20028;-81
2023/10/25 04:03:39;;;;;;;7.32;2.80;;;9.10;99.90;;;;;;15454012;23;20962;-81
2023/10/25 04:09:42;;;;;;;5.53;2.40;;;9.10;99.90;;;;;;15452613;23;20027;-80
2023/10/25 04:15:56;;;;;;;5.25;2.80;;;9.10;99.90;;;;;;15452892;23;20777;-81
2023/10/25 04:22:00;;;;;;;7.50;3.03;;;9.00;99.90;;;;;;15445521;23;20051;-80
2023/10/25 04:28:02;;;;;;;6.38;2.72;;;9.00;99.90;;;;;;15453704;23;20023;-81
2023/10/25 04:34:04;;;;;;;5.82;2.40;;;9.00;99.90;;;;;;15442341;23;20107;-80
2023/10/25 04:40:06;;;;;;;9.95;2.95;;;8.90;99.90;;;;;;15444611;23;20028;-81
2023/10/25 04:46:14;;;;;;;4.13;2.38;;;8.90;99.90;;;;;;15473495;23;20020;-81
2023/10/25 04:52:16;;;;;;;3.80;2.40;;;8.90;99.90;;;;;;15478338;23;20027;-81
2023/10/25 04:58:20;;;;;;;5.28;2.63;;;8.90;99.90;;;;;;15484711;22;20035;-81
2023/10/25 05:04:22;;;;;;;4.55;2.90;;;9.00;99.90;;;;;;15482054;23;20080;-81
2023/10/25 05:10:25;;;;;;;6.57;3.00;;;8.90;99.90;;;;;;15499930;23;20019;-81
2023/10/25 05:16:27;;;;;;;6.70;2.50;;;9.00;99.90;;;;;;15475444;23;20035;-81
2023/10/25 05:22:33;;;;;;;7.70;2.70;;;9.00;99.90;;;;;;15479229;22;20020;-82
2023/10/25 05:28:35;;;;;;;7.30;2.30;;;9.00;99.90;;;;;;15491664;23;20019;-80
2023/10/25 05:34:37;;;;;;;7.50;2.80;;;9.10;99.90;;;;;;15487507;23;20114;-81
2023/10/25 05:40:41;;;;;;;6.45;2.75;;;9.00;99.90;;;;;;15501157;23;20028;-80
2023/10/25 05:46:42;;;;;;;5.33;2.77;;;8.90;99.90;;;;;;15480491;23;20027;-80
2023/10/25 05:52:45;;;;;;;6.57;2.78;;;8.90;99.90;;;;;;15520499;23;20027;-81
2023/10/25 05:58:47;;;;;;;6.95;3.42;;;8.80;99.90;;;;;;15476789;22;20031;-80
2023/10/25 06:04:49;;;;;;;7.40;3.08;;;8.90;99.90;;;;;;15463764;23;20046;-80
2023/10/25 06:10:52;;;;;;;5.25;3.65;;;8.80;99.90;;;;;;15456447;23;20020;-81
2023/10/25 06:16:54;;;;;;;9.82;4.32;;;8.70;99.90;;;;;;15482907;23;20030;-83
2023/10/25 06:22:57;;;;;;;6.47;4.30;;;8.80;99.90;;;;;;15508348;23;20028;-82
2023/10/25 06:28:59;;;;;;;9.05;4.47;;;8.70;99.90;;;;;;15535210;23;20026;-82
2023/10/25 06:35:00;;;;;;;8.18;5.50;;;8.70;99.90;;;;;;15536760;23;20012;-84
2023/10/25 06:41:03;;;;;;;8.10;5.20;;;8.70;99.90;;;;;;15539197;23;20031;-83
2023/10/25 06:47:06;;;;;;;13.00;6.22;;;8.70;99.90;;;;;;15517101;23;20469;-84
2023/10/25 06:53:08;;;;;;;14.68;6.95;;;8.70;99.90;;;;;;15493447;23;20346;-82
2023/10/25 06:59:10;;;;;;;9.30;6.30;;;8.70;99.90;;;;;;15452833;23;20021;-82
2023/10/25 07:05:14;;;;;;;8.35;5.97;;;8.80;99.90;;;;;;15458573;23;20031;-83
2023/10/25 07:11:16;;;;;;;10.65;5.85;;;8.80;99.90;;;;;;15462015;23;20141;-82
2023/10/25 07:17:18;;;;;;;11.25;5.90;;;8.90;99.90;;;;;;15465046;23;20028;-82
2023/10/25 07:23:19;;;;;;;9.27;6.30;;;9.00;99.90;;;;;;15488961;23;20031;-83
2023/10/25 07:29:21;;;;;;;9.45;6.25;;;9.40;99.90;;;;;;15502088;23;20020;-83
2023/10/25 07:35:23;;;;;;;9.23;6.32;;;9.30;99.90;;;;;;15538776;22;20071;-82
2023/10/25 07:41:25;;;;;;;9.90;7.07;;;9.30;99.90;;;;;;15544992;22;20025;-82
2023/10/25 07:47:28;;;;;;;11.85;6.97;;;9.20;99.90;;;;;;15505857;23;20028;-81
2023/10/25 07:53:30;;;;;;;8.10;5.70;;;9.30;99.90;;;;;;15503714;23;20107;-80
2023/10/25 07:59:32;;;;;;;7.40;5.35;;;9.70;99.90;;;;;;15497048;23;20078;-81
2023/10/25 08:05:34;;;;;;;8.27;5.30;;;10.10;99.90;;;;;;15499257;22;20024;-79
2023/10/25 08:11:37;;;;;;;7.90;4.72;;;10.40;99.90;;;;;;15469136;23;20024;-80
2023/10/25 08:17:39;;;;;;;10.00;5.40;;;10.60;99.90;;;;;;15483000;23;20103;-82
2023/10/25 08:23:41;;;;;;;8.07;4.35;;;10.90;99.90;;;;;;15459494;23;20047;-81
2023/10/25 08:29:43;;;;;;;5.70;4.05;;;10.70;99.90;;;;;;15462103;23;20036;-82
2023/10/25 08:35:45;;;;;;;10.13;4.78;;;10.70;99.90;;;;;;15489892;23;20024;-81
2023/10/25 08:41:50;;;;;;;6.18;4.43;;;10.50;99.90;;;;;;15499492;23;20028;-81
2023/10/25 08:47:53;;;;;;;7.78;4.43;;;10.80;99.90;;;;;;15512430;23;20020;-81
2023/10/25 08:53:59;;;;;;;7.65;4.47;;;10.80;99.90;;;;;;15483992;23;20020;-81
2023/10/25 09:00:01;;;;;;;6.85;4.60;;;10.80;99.90;;;;;;15482557;22;20024;-80
2023/10/25 09:06:06;;;;;;;8.52;4.50;;;10.90;99.90;;;;;;15492576;22;20021;-81
2023/10/25 09:12:19;;;;;;;7.88;4.50;;;11.00;99.90;;;;;;15531253;23;20058;-82
2023/10/25 09:18:48;;;;;;;8.68;3.95;;;10.90;99.90;;;;;;15445114;22;20020;-36
2023/10/25 09:25:37;;;;;;;8.90;4.53;;;10.80;99.90;;;;;;15410799;23;20358;-36
2023/10/25 09:32:12;;;;;;;7.07;3.93;;;10.90;99.90;;;;;;15409105;23;20075;-36
2023/10/25 09:38:35;;;;;;;6.35;4.32;;;10.90;99.90;;;;;;15411717;23;20024;-36
2023/10/25 09:45:11;;;;;;;8.13;4.50;;;10.80;99.90;;;;;;15385379;23;20832;-36
2023/10/25 09:51:56;;;;;;;8.05;4.30;;;10.90;99.90;;;;;;15411848;23;20025;-37
2023/10/25 09:58:34;;;;;;;5.90;3.53;;;11.20;99.90;;;;;;15407563;23;20114;-36
2023/10/25 10:05:15;;;;;;;9.50;3.22;;;11.60;99.90;;;;;;15411343;23;20029;-37
2023/10/25 10:11:53;;;;;;;8.38;3.45;;;11.40;99.90;;;;;;15413222;23;20482;-36
2023/10/25 10:18:46;;;;;;;6.93;3.53;;;11.20;99.90;;;;;;15496006;22;20925;-36
2023/10/25 10:25:29;;;;;;;6.88;3.75;;;11.00;99.90;;;;;;15561903;22;20034;-36
2023/10/25 10:32:12;;;;;;;9.15;3.58;;;11.00;99.90;;;;;;15510945;22;20350;-36
2023/10/25 10:39:11;;;;;;;8.02;3.10;;;11.00;99.90;;;;;;15559011;22;20105;-36
2023/10/25 10:45:37;;;;;;;5.97;2.90;;;10.90;99.90;;;;;;15561272;22;20031;-36
2023/10/25 10:52:05;;;;;;;5.45;2.70;;;11.00;99.90;;;;;;15537312;22;20022;-36
2023/10/25 10:58:57;;;;;;;4.45;2.20;;;11.00;99.90;;;;;;15563926;22;20089;-36
2023/10/25 11:05:23;;;;;;;7.53;2.50;;;11.10;99.90;;;;;;15561748;22;20797;-36
2023/10/25 11:11:37;;;;;;;7.03;3.20;;;11.20;99.90;;;;;;15562034;22;20026;-36
2023/10/25 11:18:29;;;;;;;6.93;3.08;;;11.30;99.90;;;;;;15558836;22;20020;-36
2023/10/25 11:25:24;;;;;;;7.22;3.38;;;11.20;99.90;;;;;;15560743;22;20098;-36
2023/10/25 11:32:04;;;;;;;5.18;2.92;;;11.20;99.90;;;;;;15556082;22;20023;-36
2023/10/25 11:38:37;;;;;;;9.05;3.85;;;11.20;99.90;;;;;;15537520;22;20035;-36
2023/10/25 11:45:19;;;;;;;4.82;2.63;;;11.20;99.90;;;;;;15558025;22;20027;-36
2023/10/25 11:52:19;;;;;;;8.52;4.28;;;11.20;99.90;;;;;;15562829;22;20024;-36
2023/10/25 11:58:42;;;;;;;5.28;2.47;;;11.30;99.90;;;;;;15557524;22;20473;-36
2023/10/25 12:05:20;;;;;;;6.82;2.65;;;11.20;99.90;;;;;;15566225;22;20095;-36
2023/10/25 12:11:51;;;;;;;5.78;2.33;;;11.20;99.90;;;;;;15563996;22;20089;-36
2023/10/25 12:18:42;;;;;;;4.85;2.47;;;11.20;99.90;;;;;;15568254;22;20031;-36
2023/10/25 12:25:11;;;;;;;6.32;3.20;;;11.20;99.90;;;;;;15561142;22;20098;-36
2023/10/25 12:31:54;;;;;;;7.95;2.88;;;11.40;99.90;;;;;;15561115;22;20023;-36
2023/10/25 12:38:48;;;;;;;6.53;3.05;;;11.30;99.90;;;;;;15534968;22;20130;-36
2023/10/25 12:45:08;;;;;;;6.97;2.97;;;11.20;99.90;;;;;;15566628;22;20039;-37
2023/10/25 12:51:48;;;;;;;8.63;2.38;;;11.20;99.90;;;;;;15563299;22;20026;-36
2023/10/25 12:58:15;;;;;;;9.95;3.78;;;11.20;99.90;;;;;;15564528;22;20024;-37
2023/10/25 13:04:43;;;;;;;6.63;3.53;;;11.20;99.90;;;;;;15563077;22;20473;-36
2023/10/25 13:11:15;;;;;;;5.30;1.80;;;11.20;99.90;;;;;;15566454;22;20435;-36
2023/10/25 13:18:00;;;;;;;5.60;1.95;;;11.30;99.90;;;;;;15565211;22;20106;-36
2023/10/25 13:24:40;;;;;;;4.28;2.00;;;11.20;99.90;;;;;;15542488;22;20185;-36
2023/10/25 13:31:16;;;;;;;5.07;1.60;;;11.10;99.90;;;;;;15564274;22;20446;-36
2023/10/25 13:38:01;;;;;;;4.40;1.92;;;11.20;99.90;;;;;;15564147;22;20034;-36
2023/10/25 13:44:37;;;;;;;4.35;1.67;;;11.20;99.90;;;;;;15537191;22;20023;-36
2023/10/25 13:51:12;;;;;;;4.85;2.00;;;11.20;99.90;;;;;;15562020;22;20026;-36
2023/10/25 13:57:44;;;;;;;4.30;1.80;;;11.20;99.90;;;;;;15562962;22;20034;-37
2023/10/25 14:04:25;;;;;;;3.85;2.10;;;11.20;99.90;;;;;;15559711;22;20024;-36
2023/10/25 14:10:59;;;;;;;4.35;2.00;;;11.20;99.90;;;;;;15556197;22;20027;-36
2023/10/25 14:17:30;;;;;;;6.35;2.30;;;11.30;99.90;;;;;;15559307;22;20027;-36
2023/10/25 14:23:56;;;;;;;4.43;2.20;;;11.40;99.90;;;;;;15555860;22;20042;-38
2023/10/25 14:30:26;;;;;;;9.82;4.10;;;11.40;99.90;;;;;;15536301;22;20046;-36
2023/10/25 14:37:02;;;;;;;5.53;2.20;;;11.40;99.90;;;;;;15559710;22;20023;-36
2023/10/25 14:43:49;;;;;;;5.05;2.00;;;11.40;99.90;;;;;;15535482;22;20031;-36
2023/10/25 14:50:13;;;;;;;4.75;2.05;;;11.40;99.90;;;;;;15556328;22;20462;-36
2023/10/25 14:56:52;;;;;;;6.80;2.00;;;11.30;99.90;;;;;;15559077;22;20042;-36
2023/10/25 15:03:22;;;;;;;6.43;2.42;;;11.30;99.90;;;;;;15557830;22;20028;-36
2023/10/25 15:09:54;;;;;;;6.80;2.10;;;11.30;99.90;;;;;;15540635;22;20334;-37
2023/10/25 15:16:38;;;;;;;5.38;2.30;;;11.20;99.90;;;;;;15540427;22;20027;-36
2023/10/25 15:23:19;;;;;;;3.33;1.30;;;11.30;99.90;;;;;;15557776;22;20027;-37
2023/10/25 15:29:40;;;;;;;6.88;1.50;;;11.30;99.90;;;;;;15564905;22;20522;-36
2023/10/25 15:35:56;;;;;;;3.13;1.60;;;11.10;99.90;;;;;;15565147;22;20815;-38
2023/10/25 15:42:15;;;;;;;4.30;1.75;;;10.90;99.90;;;;;;15565192;22;20039;-35
2023/10/25 15:48:28;;;;;;;2.78;1.80;;;10.60;99.90;;;;;;15564230;22;20027;-36
2023/10/25 15:54:57;;;;;;;6.60;1.90;;;10.40;99.90;;;;;;15565855;22;20028;-36
2023/10/25 16:01:28;;;;;;;6.97;1.90;;;10.30;99.90;;;;;;15562733;22;20027;-36
2023/10/25 16:08:09;;;;;;;4.28;1.85;;;10.20;99.90;;;;;;15566137;22;20027;-36
2023/10/25 16:14:25;;;;;;;5.63;2.17;;;10.20;99.90;;;;;;15565184;22;20130;-36
2023/10/25 16:20:49;;;;;;;4.15;1.95;;;10.20;99.90;;;;;;15559808;22;20032;-37
2023/10/25 16:27:15;;;;;;;4.28;2.15;;;10.10;99.90;;;;;;15563089;22;20027;-36
2023/10/25 16:33:34;;;;;;;8.32;2.58;;;10.10;99.90;;;;;;15565322;22;20019;-37
2023/10/25 16:40:14;;;;;;;7.85;2.78;;;10.10;99.90;;;;;;15539464;22;20024;-36
2023/10/25 16:46:32;;;;;;;3.53;2.30;;;10.10;99.90;;;;;;15537010;22;20380;-36
2023/10/25 16:52:59;;;;;;;4.50;3.28;;;10.00;99.90;;;;;;15561050;22;20050;-35
2023/10/25 16:59:10;;;;;;;4.60;3.13;;;10.10;99.90;;;;;;15565054;22;20527;-36
2023/10/25 17:05:29;;;;;;;5.50;3.10;;;10.00;99.90;;;;;;15563969;22;20849;-36
2023/10/25 17:11:46;;;;;;;5.88;3.42;;;10.00;99.90;;;;;;15565124;22;20723;-36
2023/10/25 17:18:01;;;;;;;10.38;3.88;;;10.00;99.90;;;;;;15561311;22;20032;-36
2023/10/25 17:24:21;;;;;;;5.70;3.30;;;10.00;99.90;;;;;;15564376;22;20350;-36
2023/10/25 17:30:45;;;;;;;6.25;3.67;;;10.00;99.90;;;;;;15564251;22;20344;-36
2023/10/25 17:37:16;;;;;;;7.43;4.07;;;10.00;99.90;;;;;;15561874;22;20098;-36
2023/10/25 17:43:48;;;;;;;6.78;3.90;;;9.90;99.90;;;;;;15564184;22;20027;-36
2023/10/25 17:50:20;;;;;;;5.97;3.63;;;9.90;99.90;;;;;;15544788;22;20023;-36
2023/10/25 17:57:04;;;;;;;5.90;3.38;;;10.00;99.90;;;;;;15567287;22;20020;-36
2023/10/25 18:03:36;;;;;;;6.10;3.92;;;9.90;99.90;;;;;;15565120;22;20024;-36
2023/10/25 18:10:01;;;;;;;;;;;9.90;99.90;;;;;;15564773;22;20024;-36
2023/10/25 18:16:29;;;;;;;5.87;3.87;;;9.90;99.90;;;;;;15564511;22;20427;-36
2023/10/25 18:22:43;;;;;;;5.22;3.22;;;9.90;99.90;;;;;;15557221;22;20024;-37
2023/10/25 18:28:57;;;;;;;4.37;3.33;;;10.00;99.90;;;;;;15560148;22;20015;-36
2023/10/25 18:35:11;;;;;;;6.28;3.58;;;9.90;99.90;;;;;;15557461;22;20373;-37
2023/10/25 18:41:27;;;;;;;5.60;3.40;;;9.90;99.90;;;;;;15561108;22;20020;-36
2023/10/25 18:47:53;;;;;;;5.35;3.00;;;9.90;99.90;;;;;;15560686;22;20027;-36
2023/10/25 18:54:00;;;;;;;3.70;2.60;;;9.90;99.90;;;;;;15562829;22;20023;-36
2023/10/25 19:00:21;;;;;;;5.22;2.95;;;9.90;99.90;;;;;;15558755;22;20024;-36
2023/10/25 19:06:41;;;;;;;3.92;2.60;;;9.90;99.90;;;;;;15562515;22;20381;-36
2023/10/25 19:12:52;;;;;;;4.47;2.35;;;9.90;99.90;;;;;;15536216;22;20016;-37
2023/10/25 19:19:16;;;;;;;5.70;2.15;;;9.90;99.90;;;;;;15555941;22;20039;-35
2023/10/25 19:25:38;;;;;;;5.32;2.33;;;9.80;99.90;;;;;;15563891;22;20371;-36
2023/10/25 19:31:50;;;;;;;3.55;2.40;;;9.80;99.90;;;;;;15561945;22;20098;-36
2023/10/25 19:38:03;;;;;;;3.83;2.15;;;9.80;99.90;;;;;;15561266;22;20916;-36
2023/10/25 19:44:22;;;;;;;2.40;1.85;;;9.80;99.90;;;;;;15562089;22;20026;-36
2023/10/25 19:50:34;;;;;;;3.20;2.20;;;9.80;99.90;;;;;;15558669;22;20027;-36
2023/10/25 19:56:53;;;;;;;3.95;2.35;;;9.90;99.90;;;;;;15559133;22;20028;-36
2023/10/25 20:03:19;;;;;;;3.73;1.93;;;9.80;99.90;;;;;;15559695;22;20030;-36
2023/10/25 20:09:49;;;;;;;3.03;1.95;;;9.90;99.90;;;;;;15558950;22;20023;-36
2023/10/25 20:16:00;;;;;;;3.00;2.10;;;9.90;99.90;;;;;;15564582;22;20024;-36
2023/10/25 20:22:21;;;;;;;2.80;2.08;;;9.80;99.90;;;;;;15566406;22;20024;-37
2023/10/25 20:28:52;;;;;;;2.45;1.83;;;9.90;99.90;;;;;;15543488;22;20043;-36
2023/10/25 20:35:19;;;;;;;3.67;2.10;;;9.90;99.90;;;;;;15564443;22;20020;-37
2023/10/25 20:41:41;;;;;;;3.30;2.08;;;10.00;99.90;;;;;;15566481;22;20149;-36
2023/10/25 20:48:07;;;;;;;4.20;1.90;;;10.00;99.90;;;;;;15566635;22;20016;-36
2023/10/25 20:54:49;;;;;;;2.90;1.77;;;10.00;99.90;;;;;;15561350;22;20023;-36
2023/10/25 21:01:17;;;;;;;4.53;1.95;;;10.00;99.90;;;;;;15566203;22;20157;-36
2023/10/25 21:07:55;;;;;;;2.75;1.95;;;10.00;99.90;;;;;;15549948;22;20830;-36
2023/10/25 21:14:26;;;;;;;3.20;2.00;;;10.00;99.90;;;;;;15561822;22;20016;-36
2023/10/25 21:20:54;;;;;;;4.15;2.00;;;10.00;99.90;;;;;;15497567;22;20332;-36
2023/10/25 21:27:17;;;;;;;2.95;2.00;;;10.00;99.90;;;;;;15463514;23;20081;-36
2023/10/25 21:33:58;;;;;;;4.43;2.83;;;10.10;99.90;;;;;;15489148;23;20024;-36
2023/10/25 21:40:19;;;;;;;2.50;1.80;;;10.10;99.90;;;;;;15467586;23;20027;-36
2023/10/25 21:46:33;;;;;;;2.88;2.10;;;10.10;99.90;;;;;;15486720;23;20024;-36
2023/10/25 21:52:50;;;;;;;3.33;1.98;;;10.10;99.90;;;;;;15462350;23;20032;-38
2023/10/25 21:59:02;;;;;;;2.67;1.92;;;10.10;99.90;;;;;;15454565;23;20363;-37
2023/10/25 22:05:37;;;;;;;3.10;1.98;;;10.10;99.90;;;;;;15466050;23;20493;-36
2023/10/25 22:11:53;;;;;;;4.78;2.20;;;10.20;99.90;;;;;;15478436;23;20024;-36
2023/10/25 22:18:04;;;;;;;3.28;2.47;;;10.20;99.90;;;;;;15516601;22;20031;-36
2023/10/25 22:24:38;;;;;;;3.20;2.20;;;10.20;99.90;;;;;;15564408;22;20027;-36
2023/10/25 22:30:53;;;;;;;3.75;2.35;;;10.20;99.90;;;;;;15559263;22;20610;-37
2023/10/25 22:43:15;;;;;;;3.53;2.38;;;10.20;99.90;;;;;;15327761;23;20275;-80
2023/10/25 22:49:17;;;;;;;4.13;2.60;;;10.20;99.90;;;;;;15284234;23;20028;-79
2023/10/25 22:55:19;;;;;;;3.17;2.13;;;10.20;99.90;;;;;;15300968;23;20029;-79
2023/10/25 23:01:21;;;;;;;3.05;2.55;;;10.20;99.90;;;;;;15305181;23;20031;-79
2023/10/25 23:07:24;;;;;;;3.42;2.28;;;10.20;99.90;;;;;;15303360;23;20760;-79
2023/10/25 23:13:26;;;;;;;2.85;2.10;;;10.20;99.90;;;;;;15292647;23;20025;-79
2023/10/25 23:19:28;;;;;;;3.92;2.60;;;10.30;99.90;;;;;;15299498;23;20036;-79
2023/10/25 23:25:33;;;;;;;3.80;2.42;;;10.30;99.90;;;;;;15298111;23;20064;-79
2023/10/25 23:31:37;;;;;;;3.17;2.28;;;10.30;99.90;;;;;;15329150;23;20027;-79
2023/10/25 23:37:42;;;;;;;3.80;3.25;;;10.30;99.90;;;;;;15389272;23;20039;-79
2023/10/25 23:43:44;;;;;;;5.03;2.33;;;10.30;99.90;;;;;;15454393;23;20028;-79
2023/10/25 23:49:46;;;;;;;5.28;2.35;;;10.30;99.90;;;;;;15482805;23;20048;-79
2023/10/25 23:55:50;;;;;;;4.40;2.65;;;10.30;99.90;;;;;;15492414;23;20155;-80
